Time;durP1;ratioP1;P1;durP2;ratioP2;P2;SDS_P1;SDS_P2;PMS_P1;PMS_P2;Temp;Humidity;BMP_temperature;BMP_pressure;BME280_temperature;BME280_humidity;BME280_pressure;Samples;Min_cycle;Max_cycle;Signal;HPM_P1;HPM_P2
2023/06/21 00:02:21;;;;;;;22.77;20.42;;;21.80;99.90;;;;;;5091814;28;20119;-87
2023/06/21 00:05:08;;;;;;;24.15;19.30;;;21.90;99.90;;;;;;5091384;28;20459;-85
2023/06/21 00:07:37;;;;;;;23.38;20.63;;;21.10;99.90;;;;;;5092070;28;20436;-86
2023/06/21 00:10:02;;;;;;;22.48;20.08;;;21.00;99.90;;;;;;5091178;28;20031;-85
2023/06/21 00:12:30;;;;;;;22.40;20.10;;;21.10;99.90;;;;;;5092489;28;20028;-86
2023/06/21 00:14:56;;;;;;;21.48;19.33;;;21.10;99.90;;;;;;5092073;28;20046;-85
2023/06/21 00:17:23;;;;;;;26.35;21.77;;;21.40;99.90;;;;;;5091619;28;20020;-86
2023/06/21 00:19:49;;;;;;;22.40;20.20;;;21.10;99.90;;;;;;5092173;28;20387;-87
2023/06/21 00:22:21;;;;;;;26.42;19.75;;;21.00;99.90;;;;;;5092285;28;20103;-85
2023/06/21 00:24:50;;;;;;;25.05;20.90;;;22.10;99.90;;;;;;5091312;28;20027;-85
2023/06/21 00:27:17;;;;;;;24.65;21.77;;;21.40;99.90;;;;;;5092084;28;20067;-85
2023/06/21 00:29:43;;;;;;;22.17;20.00;;;21.10;99.90;;;;;;5089360;28;20025;-85
2023/06/21 00:32:08;;;;;;;23.35;20.95;;;21.10;99.90;;;;;;5074709;28;20028;-85
2023/06/21 00:34:35;;;;;;;28.30;21.25;;;21.10;99.90;;;;;;5075781;28;20028;-85
2023/06/21 00:37:02;;;;;;;24.52;21.85;;;21.10;99.90;;;;;;5075315;28;20480;-84
2023/06/21 00:39:28;;;;;;;22.45;20.25;;;21.10;99.90;;;;;;5076132;28;20036;-84
2023/06/21 00:41:54;;;;;;;22.23;19.90;;;21.30;99.90;;;;;;5075040;28;20035;-85
2023/06/21 00:44:20;;;;;;;26.25;20.95;;;21.10;99.90;;;;;;5075197;28;20419;-84
2023/06/21 00:46:45;;;;;;;24.20;21.48;;;21.10;99.90;;;;;;5074540;28;20028;-87
2023/06/21 00:49:11;;;;;;;23.98;21.52;;;21.10;99.90;;;;;;5075472;28;20021;-85
2023/06/21 00:51:38;;;;;;;24.67;22.13;;;21.10;99.90;;;;;;5075872;28;20029;-85
2023/06/21 00:54:05;;;;;;;24.02;21.35;;;21.00;99.90;;;;;;5074519;28;20156;-87
2023/06/21 00:56:33;;;;;;;24.83;22.40;;;20.90;99.90;;;;;;5075532;28;20051;-86
2023/06/21 00:58:59;;;;;;;22.98;20.13;;;20.90;99.90;;;;;;5074590;28;20105;-86
2023/06/21 01:01:45;;;;;;;24.88;21.95;;;21.10;99.90;;;;;;5075104;28;20446;-86
2023/06/21 01:04:31;;;;;;;26.15;22.23;;;20.90;99.90;;;;;;5075533;28;20029;-86
2023/06/21 01:07:50;;;;;;;24.63;22.08;;;21.70;99.90;;;;;;5074176;28;20484;-86
2023/06/21 01:11:10;;;;;;;26.55;23.67;;;20.60;99.90;;;;;;5075196;28;20020;-86
2023/06/21 01:14:03;;;;;;;30.37;23.30;;;19.90;99.90;;;;;;5074438;28;20034;-85
2023/06/21 01:16:50;;;;;;;26.83;23.63;;;21.40;99.90;;;;;;5075260;28;20259;-86
2023/06/21 01:19:36;;;;;;;29.48;24.80;;;21.70;99.90;;;;;;5074913;28;20024;-86
2023/06/21 01:22:15;;;;;;;32.88;28.38;;;20.70;99.90;;;;;;5073744;28;20023;-85
2023/06/21 01:25:23;;;;;;;33.50;28.10;;;20.70;99.90;;;;;;5075027;28;20094;-85
2023/06/21 01:28:19;;;;;;;33.38;29.10;;;20.80;99.90;;;;;;5073752;28;20087;-86
2023/06/21 01:30:46;;;;;;;36.63;29.70;;;20.70;99.90;;;;;;5074357;28;20121;-85
2023/06/21 01:33:28;;;;;;;38.15;31.73;;;21.50;99.90;;;;;;5073775;22;20412;-86
2023/06/21 01:35:54;;;;;;;37.63;30.60;;;21.50;99.90;;;;;;5053445;28;20025;-85
2023/06/21 01:38:29;;;;;;;32.35;28.95;;;21.80;99.90;;;;;;5054593;28;20043;-86
2023/06/21 01:43:37;;;;;;;37.88;31.10;;;20.70;99.90;;;;;;5056644;22;20523;-86
2023/06/21 01:46:18;;;;;;;40.55;33.00;;;20.80;99.90;;;;;;5053837;28;20480;-86
2023/06/21 01:48:45;;;;;;;36.83;30.75;;;21.60;99.90;;;;;;5099286;22;20107;-86
2023/06/21 01:51:12;;;;;;;34.95;30.60;;;20.60;99.90;;;;;;5034425;28;20029;-86
2023/06/21 01:53:39;;;;;;;39.33;31.77;;;21.10;99.90;;;;;;5034594;28;20032;-86
2023/06/21 01:56:11;;;;;;;36.90;32.20;;;20.70;99.90;;;;;;5032848;28;20436;-86
2023/06/21 01:58:36;;;;;;;42.95;32.92;;;21.10;99.90;;;;;;5034355;28;20025;-86
2023/06/21 02:01:03;;;;;;;38.92;31.98;;;20.70;99.90;;;;;;5034467;28;20523;-86
2023/06/21 02:03:31;;;;;;;39.13;32.60;;;20.80;99.90;;;;;;5033682;28;20025;-87
2023/06/21 02:06:03;;;;;;;37.83;32.97;;;20.80;99.90;;;;;;5033727;28;20433;-86
2023/06/21 02:08:30;;;;;;;37.97;33.85;;;20.80;99.90;;;;;;5034280;28;20083;-86
2023/06/21 02:10:57;;;;;;;37.28;32.50;;;20.70;99.90;;;;;;5033326;28;20052;-86
2023/06/21 02:13:26;;;;;;;40.53;33.60;;;20.90;99.90;;;;;;5034109;28;20113;-85
2023/06/21 02:15:53;;;;;;;40.90;34.45;;;20.90;99.90;;;;;;5033636;28;20037;-85
2023/06/21 02:18:21;;;;;;;40.03;33.65;;;21.10;99.90;;;;;;5032924;28;20038;-85
2023/06/21 02:20:47;;;;;;;38.08;32.72;;;20.70;99.90;;;;;;5033588;28;20029;-85
2023/06/21 02:23:12;;;;;;;40.00;33.20;;;20.70;99.90;;;;;;5033614;28;20033;-85
2023/06/21 02:25:38;;;;;;;36.65;32.58;;;20.70;99.90;;;;;;5033436;28;20038;-85
2023/06/21 02:28:05;;;;;;;38.72;32.17;;;20.90;99.90;;;;;;5033477;28;20390;-86
2023/06/21 02:30:30;;;;;;;34.63;30.85;;;20.70;99.90;;;;;;5032883;28;20057;-85
2023/06/21 02:33:05;;;;;;;40.75;32.72;;;20.70;99.90;;;;;;5033358;28;20045;-85
2023/06/21 02:35:30;;;;;;;36.10;31.83;;;20.70;99.90;;;;;;5033448;28;20021;-85
2023/06/21 02:37:56;;;;;;;38.83;32.08;;;20.80;99.90;;;;;;5032549;28;20029;-86
2023/06/21 02:40:22;;;;;;;40.40;31.92;;;20.70;99.90;;;;;;5033571;28;20029;-86
2023/06/21 02:42:47;;;;;;;41.63;33.10;;;20.70;99.90;;;;;;5033304;28;20025;-86
2023/06/21 02:45:13;;;;;;;36.70;31.20;;;20.90;99.90;;;;;;5032793;28;20033;-85
2023/06/21 02:47:39;;;;;;;35.40;29.95;;;20.60;99.90;;;;;;5033576;28;20049;-86
2023/06/21 02:50:05;;;;;;;37.53;30.85;;;20.60;99.90;;;;;;5033038;28;20026;-85
2023/06/21 02:52:31;;;;;;;37.25;30.88;;;20.70;99.90;;;;;;5032545;28;20061;-85
2023/06/21 02:54:58;;;;;;;40.22;30.77;;;20.80;99.90;;;;;;5032675;28;20060;-85
2023/06/21 02:57:23;;;;;;;36.33;30.42;;;20.60;99.90;;;;;;5033229;28;20104;-85
2023/06/21 02:59:49;;;;;;;37.17;32.13;;;20.80;99.90;;;;;;5032083;28;20450;-85
2023/06/21 03:02:18;;;;;;;40.15;30.70;;;20.60;99.90;;;;;;5032959;28;20040;-86
2023/06/21 03:04:44;;;;;;;37.03;29.80;;;20.60;99.90;;;;;;5033148;28;20041;-86
2023/06/21 03:07:10;;;;;;;39.13;30.65;;;20.80;99.90;;;;;;5032613;28;20493;-86
2023/06/21 03:09:35;;;;;;;39.65;29.88;;;20.50;99.90;;;;;;5032564;28;20052;-85
2023/06/21 03:12:08;;;;;;;39.00;29.58;;;20.50;99.90;;;;;;5032587;28;20053;-86
2023/06/21 03:14:37;;;;;;;32.45;28.92;;;20.50;99.90;;;;;;5032138;28;20083;-86
2023/06/21 03:17:21;;;;;;;35.42;28.90;;;20.60;99.90;;;;;;5032700;28;20031;-85
2023/06/21 03:19:46;;;;;;;37.78;29.30;;;20.50;99.90;;;;;;5032050;28;20100;-85
2023/06/21 03:22:12;;;;;;;35.90;28.08;;;20.80;99.90;;;;;;5032641;28;20100;-86
2023/06/21 03:24:38;;;;;;;31.40;27.35;;;20.50;99.90;;;;;;5032689;28;20029;-86
2023/06/21 03:27:04;;;;;;;30.90;27.63;;;20.80;99.90;;;;;;5031837;28;20467;-86
2023/06/21 03:29:32;;;;;;;30.98;27.33;;;20.40;99.90;;;;;;5032974;28;20100;-85
2023/06/21 03:32:16;;;;;;;34.17;27.85;;;20.40;99.90;;;;;;5032574;28;20026;-86
2023/06/21 03:34:42;;;;;;;30.35;25.52;;;20.50;99.90;;;;;;5031883;28;20036;-86
2023/06/21 03:37:19;;;;;;;32.58;26.08;;;21.40;99.90;;;;;;5032166;28;20108;-86
2023/06/21 03:40:08;;;;;;;31.02;25.83;;;20.60;99.90;;;;;;5032425;28;20022;-86
2023/06/21 03:42:53;;;;;;;33.22;26.95;;;20.50;99.90;;;;;;5031729;28;20100;-86
2023/06/21 03:45:34;;;;;;;35.83;27.75;;;21.50;99.90;;;;;;5032464;28;20056;-85
2023/06/21 03:48:11;;;;;;;33.75;28.80;;;20.10;99.90;;;;;;5030809;28;20041;-86
2023/06/21 03:50:36;;;;;;;34.10;26.00;;;21.50;99.90;;;;;;5032365;28;20104;-85
2023/06/21 03:53:13;;;;;;;33.45;26.65;;;20.90;99.90;;;;;;5031515;28;20533;-85
2023/06/21 03:55:45;;;;;;;31.33;27.30;;;21.30;99.90;;;;;;5031303;28;20036;-86
2023/06/21 03:58:12;;;;;;;29.17;25.98;;;21.40;99.90;;;;;;5030928;28;20030;-86
2023/06/21 04:00:50;;;;;;;29.50;24.50;;;20.70;99.90;;;;;;5031082;28;20029;-85
2023/06/21 04:03:16;;;;;;;29.10;25.17;;;21.50;99.90;;;;;;5031707;28;20029;-86
2023/06/21 04:05:41;;;;;;;31.48;23.60;;;20.90;99.90;;;;;;5034398;28;20507;-86
2023/06/21 04:08:25;;;;;;;29.92;23.17;;;21.50;99.90;;;;;;5036283;28;20045;-86
2023/06/21 04:11:05;;;;;;;30.70;21.23;;;21.40;99.90;;;;;;5035915;28;20029;-86
2023/06/21 04:13:40;;;;;;;24.45;21.58;;;20.60;99.90;;;;;;5036464;28;20017;-86
2023/06/21 04:16:15;;;;;;;23.55;20.58;;;20.60;99.90;;;;;;5035076;28;20524;-86
2023/06/21 04:18:53;;;;;;;23.05;17.85;;;20.30;99.90;;;;;;5036074;28;20025;-86
2023/06/21 04:21:27;;;;;;;19.00;16.55;;;21.40;99.90;;;;;;5035890;28;20474;-86
2023/06/21 04:24:01;;;;;;;23.08;16.27;;;20.70;99.90;;;;;;5035024;28;20037;-87
2023/06/21 04:26:36;;;;;;;16.85;14.38;;;20.70;99.90;;;;;;5036004;28;20083;-86
2023/06/21 04:29:19;;;;;;;17.40;14.98;;;21.60;99.90;;;;;;5035620;28;20052;-86
2023/06/21 04:31:52;;;;;;;17.08;14.45;;;21.70;99.90;;;;;;5035163;28;20104;-86
2023/06/21 04:34:27;;;;;;;17.70;14.07;;;20.90;99.90;;;;;;5036003;28;20393;-86
2023/06/21 04:36:59;;;;;;;16.70;14.65;;;20.20;99.90;;;;;;5035359;28;20029;-86
2023/06/21 04:39:45;;;;;;;18.42;15.48;;;21.40;99.90;;;;;;5052872;22;20064;-87
2023/06/21 04:45:49;;;;;;;21.08;16.40;;;20.80;99.90;;;;;;4901744;23;20491;-87
2023/06/21 04:52:12;;;;;;;23.00;14.80;;;20.70;99.90;;;;;;4852370;29;20073;-87
2023/06/21 04:54:58;;;;;;;15.73;14.10;;;20.80;99.90;;;;;;4852820;29;20033;-86
2023/06/21 04:57:24;;;;;;;16.30;14.55;;;21.70;99.90;;;;;;4843420;29;20030;-86
2023/06/21 05:00:06;;;;;;;16.70;13.05;;;20.90;99.90;;;;;;4843188;29;20407;-86
2023/06/21 05:02:44;;;;;;;18.05;12.65;;;20.90;99.90;;;;;;4841719;29;20162;-85
2023/06/21 05:05:15;;;;;;;14.32;12.02;;;20.80;99.90;;;;;;4843258;29;20109;-86
2023/06/21 05:08:06;;;;;;;15.98;12.75;;;20.90;99.90;;;;;;4843974;29;20034;-86
2023/06/21 05:10:43;;;;;;;15.23;12.27;;;21.20;99.90;;;;;;4843589;29;20494;-86
2023/06/21 05:13:18;;;;;;;14.40;11.73;;;21.60;99.90;;;;;;4843212;29;20036;-86
2023/06/21 05:16:44;;;;;;;;;;;;;;;;;;;;;
2023/06/21 05:19:11;;;;;;;15.68;10.85;;;20.90;99.90;;;;;;4756167;30;20039;-85
2023/06/21 05:21:45;;;;;;;13.82;11.48;;;20.90;99.90;;;;;;4786705;29;20115;-86
2023/06/21 05:24:10;;;;;;;13.35;10.57;;;20.90;99.90;;;;;;4921877;23;20057;-86
2023/06/21 05:26:36;;;;;;;17.15;10.45;;;20.90;99.90;;;;;;4861585;29;20046;-86
2023/06/21 05:29:02;;;;;;;11.05;9.00;;;20.90;99.90;;;;;;4862292;29;20030;-87
2023/06/21 05:31:36;;;;;;;12.98;7.63;;;20.90;99.90;;;;;;4860771;29;20049;-87
2023/06/21 05:34:10;;;;;;;7.07;4.28;;;20.50;99.90;;;;;;4860744;29;20037;-87
2023/06/21 05:36:39;;;;;;;4.53;3.47;;;20.40;99.90;;;;;;4862207;29;20041;-86
2023/06/21 05:39:05;;;;;;;4.25;3.38;;;20.80;99.90;;;;;;4861178;29;20033;-84
2023/06/21 05:41:39;;;;;;;8.15;3.05;;;21.00;99.90;;;;;;4861706;29;20029;-81
2023/06/21 05:44:05;;;;;;;3.33;2.60;;;21.20;99.90;;;;;;4861620;29;20089;-82
2023/06/21 05:46:30;;;;;;;6.53;2.83;;;20.90;99.90;;;;;;4861085;29;20037;-83
2023/06/21 05:51:42;;;;;;;5.65;2.45;;;20.70;99.90;;;;;;4861210;29;20508;-83
2023/06/21 05:54:08;;;;;;;4.85;2.60;;;20.90;99.90;;;;;;4860914;29;20314;-83
2023/06/21 05:56:37;;;;;;;6.53;3.10;;;20.70;99.90;;;;;;4868819;29;20025;-85
2023/06/21 05:59:03;;;;;;;4.85;3.75;;;20.60;99.90;;;;;;4871999;29;20025;-87
2023/06/21 06:01:30;;;;;;;4.50;3.03;;;20.60;99.90;;;;;;4879755;29;20035;-86
2023/06/21 06:03:55;;;;;;;8.93;3.95;;;20.60;99.90;;;;;;4880042;29;20033;-86
2023/06/21 06:06:21;;;;;;;6.28;3.03;;;20.80;99.90;;;;;;4879981;29;20060;-85
2023/06/21 06:08:46;;;;;;;3.63;2.97;;;20.60;99.90;;;;;;4879486;29;20378;-86
2023/06/21 06:11:12;;;;;;;5.93;3.35;;;20.60;99.90;;;;;;4880265;29;20080;-85
2023/06/21 06:13:38;;;;;;;2.80;2.33;;;20.50;99.90;;;;;;4879774;29;20163;-85
2023/06/21 06:16:04;;;;;;;3.80;2.80;;;21.20;99.90;;;;;;4879357;29;20036;-85
2023/06/21 06:18:29;;;;;;;8.95;3.00;;;20.60;99.90;;;;;;4879802;29;20029;-83
2023/06/21 06:20:55;;;;;;;4.20;2.38;;;20.90;99.90;;;;;;4881353;29;20081;-84
2023/06/21 06:23:20;;;;;;;5.32;2.70;;;20.70;99.90;;;;;;4881428;29;20057;-85
2023/06/21 06:25:46;;;;;;;7.35;2.67;;;20.70;99.90;;;;;;4879683;29;20044;-87
2023/06/21 06:28:12;;;;;;;4.25;2.40;;;20.70;99.90;;;;;;4879312;29;20033;-84
2023/06/21 06:30:37;;;;;;;5.47;2.28;;;21.00;99.90;;;;;;4879011;29;20029;-82
2023/06/21 06:33:03;;;;;;;3.13;2.28;;;20.60;99.90;;;;;;4863883;29;20047;-82
2023/06/21 06:35:28;;;;;;;4.18;2.42;;;20.60;99.90;;;;;;4861054;29;20080;-82
2023/06/21 06:37:54;;;;;;;3.00;2.25;;;20.70;99.90;;;;;;4860237;29;20029;-83
2023/06/21 06:40:20;;;;;;;3.67;2.60;;;20.70;99.90;;;;;;4861064;29;20038;-84
2023/06/21 06:42:45;;;;;;;3.38;1.90;;;20.70;99.90;;;;;;4860813;29;20033;-82
2023/06/21 06:45:11;;;;;;;6.38;1.85;;;20.60;99.90;;;;;;4860707;29;20093;-84
2023/06/21 06:47:36;;;;;;;4.03;2.20;;;20.60;99.90;;;;;;4861138;29;20368;-83
2023/06/21 06:50:05;;;;;;;8.35;2.60;;;20.70;99.90;;;;;;4860208;29;20431;-83
2023/06/21 06:52:31;;;;;;;5.75;2.35;;;20.70;99.90;;;;;;4860072;29;20124;-85
2023/06/21 06:54:57;;;;;;;3.45;2.30;;;21.00;99.90;;;;;;4860695;29;20057;-83
2023/06/21 06:57:23;;;;;;;3.90;2.50;;;21.20;99.90;;;;;;4859926;29;20068;-83
2023/06/21 06:59:49;;;;;;;6.03;2.25;;;20.70;99.90;;;;;;4859061;29;20060;-84
2023/06/21 07:02:15;;;;;;;5.47;1.58;;;21.50;99.90;;;;;;4857912;29;20029;-84
2023/06/21 07:04:40;;;;;;;6.13;1.70;;;21.40;99.90;;;;;;4857990;29;20029;-84
2023/06/21 07:07:06;;;;;;;4.78;2.20;;;20.90;99.90;;;;;;4858450;29;20041;-84
2023/06/21 07:09:33;;;;;;;3.25;1.88;;;21.00;99.90;;;;;;4858406;29;20307;-84
2023/06/21 07:12:01;;;;;;;3.75;1.98;;;21.30;99.90;;;;;;4856210;29;20038;-84
2023/06/21 07:14:27;;;;;;;5.80;2.42;;;21.00;99.90;;;;;;4852824;29;20038;-84
2023/06/21 07:16:52;;;;;;;3.28;2.20;;;21.60;99.90;;;;;;4856421;29;20488;-84
2023/06/21 07:19:18;;;;;;;3.95;2.20;;;21.00;99.90;;;;;;4856452;29;20037;-84
2023/06/21 07:21:44;;;;;;;5.78;2.55;;;20.90;99.90;;;;;;4857326;29;20483;-84
2023/06/21 07:24:10;;;;;;;4.25;2.25;;;20.80;99.90;;;;;;4857251;29;20069;-84
2023/06/21 07:26:36;;;;;;;2.40;2.00;;;20.80;99.90;;;;;;4858176;29;20125;-84
2023/06/21 07:29:02;;;;;;;2.60;1.85;;;21.20;99.90;;;;;;4860388;29;20551;-84
2023/06/21 07:31:27;;;;;;;4.13;1.80;;;21.00;99.90;;;;;;4860357;29;20501;-84
2023/06/21 07:33:57;;;;;;;4.30;2.00;;;21.00;99.90;;;;;;4859888;29;20088;-84
2023/06/21 07:36:22;;;;;;;4.13;2.10;;;21.00;99.90;;;;;;4860466;29;20041;-83
2023/06/21 07:38:48;;;;;;;4.43;2.30;;;21.00;99.90;;;;;;4859809;29;20387;-84
2023/06/21 07:41:16;;;;;;;3.78;2.10;;;21.70;99.90;;;;;;4859232;29;20525;-84
2023/06/21 07:43:42;;;;;;;2.47;2.25;;;21.00;99.90;;;;;;4860241;29;20126;-84
2023/06/21 07:46:07;;;;;;;3.42;2.60;;;21.00;99.90;;;;;;4860119;29;20132;-84
2023/06/21 07:48:34;;;;;;;4.70;2.42;;;21.00;99.90;;;;;;4859498;29;20026;-84
2023/06/21 07:51:00;;;;;;;2.63;2.20;;;21.00;99.90;;;;;;4860060;29;20079;-84
2023/06/21 07:53:26;;;;;;;4.47;2.70;;;21.00;99.90;;;;;;4860186;29;20128;-88
2023/06/21 07:55:51;;;;;;;3.65;2.42;;;21.10;99.90;;;;;;4859223;29;20479;-85
2023/06/21 07:58:17;;;;;;;4.28;2.80;;;21.10;99.90;;;;;;4860104;29;20041;-85
2023/06/21 08:00:42;;;;;;;3.00;2.50;;;21.70;99.90;;;;;;4860289;29;20037;-83
2023/06/21 08:03:08;;;;;;;6.15;2.78;;;22.10;99.90;;;;;;4859225;29;20499;-83
2023/06/21 08:05:34;;;;;;;3.60;2.20;;;21.20;99.90;;;;;;4860018;29;20030;-83
2023/06/21 08:08:01;;;;;;;5.30;1.90;;;21.20;99.90;;;;;;4858908;29;20120;-83
2023/06/21 08:10:27;;;;;;;4.63;1.98;;;21.50;99.90;;;;;;4859974;29;20034;-83
2023/06/21 08:12:53;;;;;;;2.78;1.88;;;21.50;99.90;;;;;;4859669;29;20066;-83
2023/06/21 08:15:19;;;;;;;4.65;2.00;;;21.20;99.90;;;;;;4859478;29;20052;-83
2023/06/21 08:17:44;;;;;;;4.20;1.95;;;21.20;99.90;;;;;;4859648;29;20036;-83
2023/06/21 08:20:10;;;;;;;3.10;1.50;;;21.20;99.90;;;;;;4859966;29;20082;-83
2023/06/21 08:22:36;;;;;;;2.78;1.30;;;21.20;99.90;;;;;;4858072;29;20129;-83
2023/06/21 08:25:02;;;;;;;3.30;2.00;;;21.30;99.90;;;;;;4859348;29;20074;-83
2023/06/21 08:27:27;;;;;;;4.25;1.55;;;21.30;99.90;;;;;;4860048;29;20025;-83
2023/06/21 08:29:53;;;;;;;2.65;1.10;;;21.30;99.90;;;;;;4858966;29;20026;-83
2023/06/21 08:32:19;;;;;;;2.10;1.58;;;21.50;99.90;;;;;;4859744;29;20506;-83
2023/06/21 08:34:45;;;;;;;4.25;2.03;;;21.30;99.90;;;;;;4859716;29;20036;-83
2023/06/21 08:37:11;;;;;;;6.15;2.30;;;21.40;99.90;;;;;;4858930;29;20021;-84
2023/06/21 08:39:37;;;;;;;2.55;1.77;;;21.40;99.90;;;;;;4859684;29;20113;-84
2023/06/21 08:42:02;;;;;;;2.60;1.98;;;21.40;99.90;;;;;;4859577;29;20026;-83
2023/06/21 08:44:28;;;;;;;3.55;1.90;;;21.30;99.90;;;;;;4859036;29;20058;-83
2023/06/21 08:46:56;;;;;;;2.63;1.80;;;21.50;99.90;;;;;;4859225;29;20068;-83
2023/06/21 08:49:25;;;;;;;3.15;2.05;;;21.40;99.90;;;;;;4859694;29;20443;-83
2023/06/21 08:51:54;;;;;;;2.50;1.75;;;21.40;99.90;;;;;;4860631;29;20114;-83
2023/06/21 08:54:29;;;;;;;3.42;2.30;;;22.10;99.90;;;;;;4863355;29;20113;-83
2023/06/21 08:57:09;;;;;;;4.95;1.80;;;21.40;99.90;;;;;;4862604;29;20034;-83
2023/06/21 08:59:45;;;;;;;2.53;1.70;;;21.50;99.90;;;;;;4863238;29;20022;-83
2023/06/21 09:02:48;;;;;;;7.88;1.75;;;21.50;99.90;;;;;;4862724;29;20066;-83
2023/06/21 09:05:20;;;;;;;3.00;1.90;;;21.50;99.90;;;;;;4862257;29;20045;-83
2023/06/21 09:07:46;;;;;;;4.85;2.10;;;21.70;99.90;;;;;;4862317;29;20029;-83
2023/06/21 09:10:15;;;;;;;3.28;1.80;;;21.70;99.90;;;;;;4862709;29;20093;-83
2023/06/21 09:12:43;;;;;;;3.17;1.88;;;21.70;99.90;;;;;;4861930;29;20029;-83
2023/06/21 09:15:09;;;;;;;3.30;1.83;;;21.60;99.90;;;;;;4862150;29;20364;-83
2023/06/21 09:17:37;;;;;;;3.38;2.10;;;21.70;99.90;;;;;;4862709;29;20116;-83
2023/06/21 09:20:03;;;;;;;3.72;2.10;;;21.70;99.90;;;;;;4861797;29;20060;-83
2023/06/21 09:22:30;;;;;;;5.90;2.20;;;21.80;99.90;;;;;;4862540;29;20085;-83
2023/06/21 09:24:56;;;;;;;2.00;1.70;;;21.70;99.90;;;;;;4862216;29;20062;-85
2023/06/21 09:27:22;;;;;;;2.85;1.92;;;21.80;99.90;;;;;;4862302;29;20037;-84
2023/06/21 09:29:50;;;;;;;2.65;1.60;;;21.90;99.90;;;;;;4861926;29;20108;-85
2023/06/21 09:32:16;;;;;;;2.45;1.75;;;21.80;99.90;;;;;;4862255;29;20037;-85
2023/06/21 09:34:42;;;;;;;4.03;2.03;;;21.80;99.90;;;;;;4862004;29;20036;-83
2023/06/21 09:37:08;;;;;;;5.28;2.05;;;22.70;99.90;;;;;;4861974;29;20085;-83
2023/06/21 09:39:33;;;;;;;5.43;2.40;;;21.80;99.90;;;;;;4861588;29;20030;-83
2023/06/21 09:41:59;;;;;;;2.38;2.10;;;22.30;99.90;;;;;;4862068;29;20074;-83
2023/06/21 09:44:25;;;;;;;6.10;2.40;;;21.90;99.90;;;;;;4862394;29;20029;-83
2023/06/21 09:46:58;;;;;;;2.88;2.03;;;21.90;99.90;;;;;;4861139;29;20033;-83
2023/06/21 09:49:27;;;;;;;3.08;2.20;;;21.90;99.90;;;;;;4862416;29;20022;-83
2023/06/21 09:51:53;;;;;;;3.63;2.15;;;22.10;99.90;;;;;;4861725;29;20033;-83
2023/06/21 09:54:19;;;;;;;4.05;2.80;;;21.90;99.90;;;;;;4861205;29;20386;-83
2023/06/21 09:56:45;;;;;;;4.15;2.45;;;21.90;99.90;;;;;;4862049;29;20037;-83
2023/06/21 09:59:18;;;;;;;4.25;2.58;;;21.90;99.90;;;;;;4861974;29;20030;-83
2023/06/21 10:01:46;;;;;;;4.53;2.13;;;22.00;99.90;;;;;;4860945;29;20043;-83
2023/06/21 10:04:16;;;;;;;2.63;2.17;;;22.00;99.90;;;;;;4861303;29;20057;-83
2023/06/21 10:06:51;;;;;;;;;;;22.10;99.90;;;;;;4862191;29;20041;-83
2023/06/21 10:09:18;;;;;;;3.83;2.28;;;22.10;99.90;;;;;;4860957;29;19912;-83
2023/06/21 10:11:44;;;;;;;5.53;3.10;;;22.00;99.90;;;;;;4861827;29;20459;-83
2023/06/21 10:14:25;;;;;;;4.40;2.70;;;22.40;99.90;;;;;;4861499;29;20112;-83
2023/06/21 10:16:53;;;;;;;3.35;2.80;;;22.20;99.90;;;;;;4860884;29;20488;-83
2023/06/21 10:19:22;;;;;;;3.50;2.08;;;22.10;99.90;;;;;;4861548;29;20040;-82
2023/06/21 10:21:58;;;;;;;2.95;2.40;;;22.30;99.90;;;;;;4860744;29;20431;-83
2023/06/21 10:24:26;;;;;;;3.45;2.08;;;22.20;99.90;;;;;;4861462;29;20136;-83
2023/06/21 10:26:53;;;;;;;3.47;2.40;;;22.20;99.90;;;;;;4861131;29;20175;-83
2023/06/21 10:29:20;;;;;;;8.82;2.88;;;22.70;99.90;;;;;;4860833;29;20108;-83
2023/06/21 10:31:49;;;;;;;2.45;2.20;;;22.30;99.90;;;;;;4861552;29;20041;-83
2023/06/21 10:34:19;;;;;;;3.78;2.15;;;22.40;99.90;;;;;;4861218;29;20036;-83
2023/06/21 10:36:48;;;;;;;5.18;2.58;;;23.00;99.90;;;;;;4860416;29;20372;-82
2023/06/21 10:39:16;;;;;;;4.45;2.40;;;22.40;99.90;;;;;;4861342;29;20101;-83
2023/06/21 10:41:43;;;;;;;2.75;2.05;;;22.40;99.90;;;;;;4861035;29;20570;-84
2023/06/21 10:44:10;;;;;;;3.10;2.35;;;22.40;99.90;;;;;;4860112;29;20652;-83
2023/06/21 10:46:41;;;;;;;2.08;1.88;;;22.50;99.90;;;;;;4860850;29;20487;-83
2023/06/21 10:49:07;;;;;;;2.72;2.10;;;22.40;99.90;;;;;;4860960;29;20111;-83
2023/06/21 10:51:35;;;;;;;2.60;1.60;;;22.90;99.90;;;;;;4860262;29;20029;-83
2023/06/21 10:54:02;;;;;;;2.35;1.52;;;22.40;99.90;;;;;;4860519;29;20437;-83
2023/06/21 10:56:29;;;;;;;2.35;1.77;;;22.50;99.90;;;;;;4861011;29;20030;-83
2023/06/21 10:58:55;;;;;;;3.10;1.55;;;22.60;99.90;;;;;;4860089;29;20112;-83
2023/06/21 11:01:22;;;;;;;4.10;1.58;;;22.50;99.90;;;;;;4860949;29;20109;-83
2023/06/21 11:03:47;;;;;;;3.80;1.58;;;22.60;99.90;;;;;;4860090;29;20104;-83
2023/06/21 11:06:23;;;;;;;2.40;1.50;;;22.50;99.90;;;;;;4860908;29;20460;-83
2023/06/21 11:08:49;;;;;;;2.13;1.77;;;22.50;99.90;;;;;;4860508;29;20076;-83
2023/06/21 11:11:32;;;;;;;6.38;2.72;;;22.70;99.90;;;;;;4860267;29;20053;-83
2023/06/21 11:14:01;;;;;;;3.78;2.20;;;22.60;99.90;;;;;;4860458;29;20040;-83
2023/06/21 11:16:30;;;;;;;4.93;2.78;;;22.60;99.90;;;;;;4860740;29;20104;-83
2023/06/21 11:18:58;;;;;;;2.97;2.65;;;23.10;99.90;;;;;;4859820;29;20029;-83
2023/06/21 11:21:41;;;;;;;3.88;2.30;;;22.70;99.90;;;;;;4860753;29;20045;-83
2023/06/21 11:24:10;;;;;;;4.03;2.70;;;22.70;99.90;;;;;;4860132;29;20079;-83
2023/06/21 11:26:58;;;;;;;3.53;3.05;;;22.70;99.90;;;;;;4859935;29;20041;-84
2023/06/21 11:29:42;;;;;;;5.43;3.28;;;22.80;99.90;;;;;;4860824;29;20056;-83
2023/06/21 11:32:15;;;;;;;3.90;2.67;;;22.80;99.90;;;;;;4859471;29;20049;-83
2023/06/21 11:34:56;;;;;;;3.42;2.35;;;22.80;99.90;;;;;;4860843;29;20390;-83
2023/06/21 11:37:40;;;;;;;2.85;2.30;;;22.80;99.90;;;;;;4860359;29;20478;-83
2023/06/21 11:40:15;;;;;;;4.32;2.58;;;22.90;99.90;;;;;;4859477;29;20041;-83
2023/06/21 11:42:48;;;;;;;5.97;2.38;;;22.80;99.90;;;;;;4860159;29;20021;-83
2023/06/21 11:45:25;;;;;;;4.13;2.25;;;22.90;99.90;;;;;;4860433;29;20035;-83
2023/06/21 11:48:02;;;;;;;2.47;1.77;;;23.00;99.90;;;;;;4859381;29;20040;-83
2023/06/21 11:50:48;;;;;;;6.03;3.30;;;23.00;99.90;;;;;;4860255;29;20068;-83
2023/06/21 11:53:23;;;;;;;4.15;3.00;;;23.00;99.90;;;;;;4859362;29;20033;-83
2023/06/21 11:55:52;;;;;;;6.45;3.28;;;22.90;99.90;;;;;;4860263;29;20105;-83
2023/06/21 11:58:18;;;;;;;4.22;3.30;;;23.70;99.90;;;;;;4859989;29;20510;-83
2023/06/21 12:00:45;;;;;;;5.30;4.50;;;23.10;99.90;;;;;;4859391;29;20064;-83
2023/06/21 12:03:14;;;;;;;6.32;4.45;;;23.00;99.90;;;;;;4860166;29;20037;-83
2023/06/21 12:05:44;;;;;;;4.90;3.78;;;22.80;99.90;;;;;;4859954;29;20486;-83
2023/06/21 12:08:10;;;;;;;6.03;4.72;;;23.00;99.90;;;;;;4859355;29;20072;-83
2023/06/21 12:10:35;;;;;;;4.80;4.40;;;23.10;99.90;;;;;;4860001;29;20057;-82
2023/06/21 12:13:05;;;;;;;4.20;3.80;;;23.20;99.90;;;;;;4859826;29;20045;-83
2023/06/21 12:15:31;;;;;;;6.87;4.60;;;23.00;99.90;;;;;;4859300;29;20105;-83
2023/06/21 12:17:56;;;;;;;8.43;5.05;;;23.00;99.90;;;;;;4859655;29;20550;-82
2023/06/21 12:20:22;;;;;;;6.10;4.22;;;23.10;99.90;;;;;;4860014;29;20129;-83
2023/06/21 12:22:48;;;;;;;9.70;6.13;;;23.40;99.90;;;;;;4859042;29;20049;-82
2023/06/21 12:25:14;;;;;;;7.72;6.93;;;23.00;99.90;;;;;;4859933;29;20029;-83
2023/06/21 12:27:52;;;;;;;7.63;6.85;;;23.30;99.90;;;;;;4863872;29;20033;-83
2023/06/21 12:30:17;;;;;;;12.32;7.32;;;23.10;99.90;;;;;;4862986;29;20108;-83
2023/06/21 12:32:45;;;;;;;8.38;7.57;;;23.10;99.90;;;;;;4863212;29;20486;-83
2023/06/21 12:35:10;;;;;;;9.88;6.97;;;23.10;99.90;;;;;;4862916;29;20041;-83
2023/06/21 12:37:36;;;;;;;8.43;6.88;;;23.20;99.90;;;;;;4863767;29;20029;-83
2023/06/21 12:40:04;;;;;;;7.70;6.57;;;23.00;99.90;;;;;;4863236;29;20037;-83
2023/06/21 12:42:30;;;;;;;6.25;5.65;;;23.00;99.90;;;;;;4862734;29;20828;-83
2023/06/21 12:44:57;;;;;;;6.03;5.18;;;22.90;99.90;;;;;;4863246;29;20078;-83
2023/06/21 12:47:23;;;;;;;5.93;4.90;;;23.00;99.90;;;;;;4863136;29;20123;-83
2023/06/21 12:49:48;;;;;;;3.85;3.47;;;23.40;99.90;;;;;;4862187;29;20133;-83
2023/06/21 12:52:14;;;;;;;4.55;3.03;;;23.10;99.90;;;;;;4863177;29;20036;-83
2023/06/21 12:54:56;;;;;;;5.88;4.20;;;23.10;99.90;;;;;;4863185;29;20034;-83
2023/06/21 12:57:28;;;;;;;4.00;3.60;;;23.10;99.90;;;;;;4862735;29;20026;-83
2023/06/21 12:59:54;;;;;;;4.05;2.70;;;23.10;99.90;;;;;;4862669;29;20056;-83
2023/06/21 13:02:26;;;;;;;3.22;2.53;;;23.10;99.90;;;;;;4863296;29;20049;-83
2023/06/21 13:04:53;;;;;;;3.88;2.40;;;23.10;99.90;;;;;;4862326;29;20030;-83
2023/06/21 13:07:18;;;;;;;2.95;2.75;;;23.10;99.90;;;;;;4863099;29;20038;-83
2023/06/21 13:09:44;;;;;;;4.45;2.88;;;23.20;99.90;;;;;;4862873;29;20097;-83